Aeroporto :
LOGIN :

Iscrizione | Disclaimer

   EN    FR    IT 

 










Sommario :    VFR   VFR Marginale   IFR   IFR Intensivo   IFR Molto Intensivo
Visibilità : 
Base nubi : 
>= 8 km
>= 3000ft
5 / 8 km
1000 / 3000 ft
1500m / 5 km
500 / 1000 ft
800 / 1500m
200 / 500 ft
< 800m
< 200 ft
Simboli :   Temporali  Nebbia  Neve Forte  Precipitazioni Forti  Vento > 20 kt
SIGMETs :   Varie  Temporali  Ghiacco  Turbolenza  Onda orograficha  Ceneri Vulcaniche






- Altitudine del aeroporto : 1906 ft
- Codice IATA : INN


LOWI - Innsbruck

ULTIMO METAR :
  • 051420Z 07005KT 030V120 9999 FEW030 SCT080 20/12 Q1011 NOSIG

METARs OBSOLETI :
  • 051350Z 11005KT 050V170 9999 FEW030 SCT080 21/13 Q1011 NOSIG
  • 051320Z 07005KT 020V120 9999 FEW020 SCT070 20/12 Q1011 NOSIG
  • 051250Z 05007KT 9999 FEW020 BKN070 18/13 Q1011 NOSIG
  • 051220Z VRB05KT 9999 -SHRA FEW015 SCT025 BKN055 18/12 Q1012 TEMPO 27008KT SHRA
  • 051150Z 06007KT 9999 FEW015 SCT025 BKN065 18/13 Q1012 NOSIG

TAF TAF LOWI
Valido dal 05 a 12 ore il 06 a 12 ore UTC


051115Z 0512/0612 09008KT 9999 FEW030 BKN080 TX22/0612Z TN12/0603Z
TEMPO 0515/0520 29010KT -SHRA SCT040TCU BKN060
BECMG 0520/0522 27005KT



MetMap, La meteo Aeronautica in un colpo d'occhio ! - Copyright ORBIFLY Dicembre 2007 - Disclaimer

ORBIFLY MET'MAP TEAM :

Programmazione e sviluppo : Alexandra Zaïnal
Concezione : Baudouin d'Aumeries
Aiuto per la programmazione : Marc-Olivier Méhu
Supporto tecnico e logistico : Manuel Goepfert
Aiuto per la traduzione : Arnaldo La Scala

Contatto : metmap@orbifly.com




FONTI E CREDITI :

   NOAA